sensor_id;sensor_type;location;lat;lon;timestamp;P1;durP1;ratioP1;P2;durP2;ratioP2
82876;SDS011;72655;47.596;7.658;2023-09-12T08:01:22;15.30;;;11.05;;
82876;SDS011;72655;47.596;7.658;2023-09-12T08:03:49;14.30;;;9.68;;
82876;SDS011;72655;47.596;7.658;2023-09-12T08:06:16;13.18;;;9.60;;
82876;SDS011;72655;47.596;7.658;2023-09-12T08:08:43;14.35;;;10.32;;
82876;SDS011;72655;47.596;7.658;2023-09-12T08:11:10;16.52;;;10.63;;
82876;SDS011;72655;47.596;7.658;2023-09-12T08:13:37;14.55;;;10.48;;
82876;SDS011;72655;47.596;7.658;2023-09-12T08:16:04;17.50;;;11.30;;
82876;SDS011;72655;47.596;7.658;2023-09-12T08:18:32;19.15;;;9.95;;
82876;SDS011;72655;47.596;7.658;2023-09-12T08:21:02;13.48;;;9.55;;
82876;SDS011;72655;47.596;7.658;2023-09-12T08:23:28;15.48;;;9.60;;
82876;SDS011;72655;47.596;7.658;2023-09-12T08:25:55;16.17;;;10.07;;
82876;SDS011;72655;47.596;7.658;2023-09-12T08:28:22;13.30;;;9.57;;
82876;SDS011;72655;47.596;7.658;2023-09-12T08:30:49;15.15;;;10.18;;
82876;SDS011;72655;47.596;7.658;2023-09-12T08:33:18;14.30;;;9.80;;
82876;SDS011;72655;47.596;7.658;2023-09-12T08:35:46;15.18;;;9.88;;
82876;SDS011;72655;47.596;7.658;2023-09-12T08:38:13;14.13;;;9.70;;
82876;SDS011;72655;47.596;7.658;2023-09-12T08:40:40;16.08;;;10.32;;
82876;SDS011;72655;47.596;7.658;2023-09-12T08:43:09;15.52;;;9.77;;
82876;SDS011;72655;47.596;7.658;2023-09-12T08:45:36;16.63;;;10.23;;
82876;SDS011;72655;47.596;7.658;2023-09-12T08:48:03;12.63;;;9.65;;
82876;SDS011;72655;47.596;7.658;2023-09-12T08:50:31;12.27;;;9.15;;
82876;SDS011;72655;47.596;7.658;2023-09-12T08:53:00;13.35;;;9.50;;
82876;SDS011;72655;47.596;7.658;2023-09-12T08:55:28;13.07;;;9.80;;
82876;SDS011;72655;47.596;7.658;2023-09-12T08:57:55;12.68;;;9.13;;
82876;SDS011;72655;47.596;7.658;2023-09-12T09:00:23;13.48;;;9.65;;
82876;SDS011;72655;47.596;7.658;2023-09-12T09:02:51;16.10;;;9.35;;
82876;SDS011;72655;47.596;7.658;2023-09-12T09:05:20;17.65;;;9.93;;
82876;SDS011;72655;47.596;7.658;2023-09-12T09:07:50;16.08;;;8.25;;
82876;SDS011;72655;47.596;7.658;2023-09-12T09:10:21;11.65;;;8.30;;
82876;SDS011;72655;47.596;7.658;2023-09-12T09:12:49;10.50;;;7.38;;
82876;SDS011;72655;47.596;7.658;2023-09-12T09:15:22;11.75;;;7.40;;
82876;SDS011;72655;47.596;7.658;2023-09-12T09:17:51;9.88;;;5.95;;
82876;SDS011;72655;47.596;7.658;2023-09-12T09:20:25;8.30;;;6.30;;
82876;SDS011;72655;47.596;7.658;2023-09-12T09:22:56;7.97;;;6.45;;
82876;SDS011;72655;47.596;7.658;2023-09-12T09:25:26;9.18;;;6.80;;
82876;SDS011;72655;47.596;7.658;2023-09-12T09:27:53;9.88;;;7.00;;
82876;SDS011;72655;47.596;7.658;2023-09-12T09:30:27;8.25;;;7.13;;
82876;SDS011;72655;47.596;7.658;2023-09-12T09:33:08;8.82;;;6.00;;
82876;SDS011;72655;47.596;7.658;2023-09-12T09:35:36;10.30;;;6.78;;
82876;SDS011;72655;47.596;7.658;2023-09-12T09:38:05;7.97;;;6.18;;
82876;SDS011;72655;47.596;7.658;2023-09-12T09:40:34;7.65;;;6.40;;
82876;SDS011;72655;47.596;7.658;2023-09-12T09:43:02;8.45;;;6.45;;
82876;SDS011;72655;47.596;7.658;2023-09-12T09:45:29;10.02;;;6.70;;
82876;SDS011;72655;47.596;7.658;2023-09-12T09:47:57;7.75;;;6.32;;
82876;SDS011;72655;47.596;7.658;2023-09-12T09:50:25;7.35;;;5.78;;
82876;SDS011;72655;47.596;7.658;2023-09-12T09:52:54;8.27;;;6.00;;
82876;SDS011;72655;47.596;7.658;2023-09-12T09:55:23;7.68;;;5.70;;
82876;SDS011;72655;47.596;7.658;2023-09-12T09:57:52;9.63;;;6.15;;
82876;SDS011;72655;47.596;7.658;2023-09-12T10:00:20;7.38;;;5.93;;
82876;SDS011;72655;47.596;7.658;2023-09-12T10:02:48;9.95;;;6.00;;
82876;SDS011;72655;47.596;7.658;2023-09-12T10:05:17;8.52;;;5.80;;
82876;SDS011;72655;47.596;7.658;2023-09-12T10:07:47;8.85;;;5.53;;
82876;SDS011;72655;47.596;7.658;2023-09-12T10:10:16;6.65;;;5.82;;
82876;SDS011;72655;47.596;7.658;2023-09-12T10:12:47;9.57;;;6.57;;
82876;SDS011;72655;47.596;7.658;2023-09-12T10:15:18;8.98;;;6.07;;
82876;SDS011;72655;47.596;7.658;2023-09-12T10:17:49;7.25;;;6.20;;
82876;SDS011;72655;47.596;7.658;2023-09-12T10:20:21;8.77;;;6.53;;
82876;SDS011;72655;47.596;7.658;2023-09-12T10:23:03;8.50;;;6.22;;
82876;SDS011;72655;47.596;7.658;2023-09-12T10:25:36;8.80;;;5.65;;
82876;SDS011;72655;47.596;7.658;2023-09-12T10:28:04;7.50;;;6.20;;
82876;SDS011;72655;47.596;7.658;2023-09-12T10:30:33;7.57;;;6.13;;
82876;SDS011;72655;47.596;7.658;2023-09-12T10:33:01;7.63;;;5.43;;
82876;SDS011;72655;47.596;7.658;2023-09-12T10:35:29;11.10;;;5.78;;
82876;SDS011;72655;47.596;7.658;2023-09-12T10:37:59;8.40;;;5.97;;
82876;SDS011;72655;47.596;7.658;2023-09-12T10:40:29;8.18;;;5.85;;
82876;SDS011;72655;47.596;7.658;2023-09-12T10:42:57;8.95;;;6.30;;
82876;SDS011;72655;47.596;7.658;2023-09-12T10:45:26;8.65;;;5.63;;
82876;SDS011;72655;47.596;7.658;2023-09-12T10:47:55;10.10;;;5.97;;
82876;SDS011;72655;47.596;7.658;2023-09-12T10:50:22;6.85;;;5.78;;
82876;SDS011;72655;47.596;7.658;2023-09-12T10:52:49;9.85;;;5.63;;
82876;SDS011;72655;47.596;7.658;2023-09-12T10:55:17;8.02;;;5.82;;
82876;SDS011;72655;47.596;7.658;2023-09-12T10:58:00;7.05;;;5.38;;
82876;SDS011;72655;47.596;7.658;2023-09-12T11:00:28;8.93;;;5.75;;
82876;SDS011;72655;47.596;7.658;2023-09-12T11:03:01;7.57;;;5.60;;
82876;SDS011;72655;47.596;7.658;2023-09-12T11:06:05;8.30;;;5.65;;
82876;SDS011;72655;47.596;7.658;2023-09-12T11:09:01;7.50;;;5.60;;
82876;SDS011;72655;47.596;7.658;2023-09-12T11:11:43;10.77;;;5.60;;
82876;SDS011;72655;47.596;7.658;2023-09-12T11:14:12;7.32;;;5.32;;
82876;SDS011;72655;47.596;7.658;2023-09-12T11:16:40;8.48;;;5.38;;
82876;SDS011;72655;47.596;7.658;2023-09-12T11:19:19;5.68;;;4.85;;
82876;SDS011;72655;47.596;7.658;2023-09-12T11:21:49;7.55;;;5.20;;
82876;SDS011;72655;47.596;7.658;2023-09-12T11:24:17;7.50;;;5.80;;
82876;SDS011;72655;47.596;7.658;2023-09-12T11:26:55;6.80;;;5.15;;
82876;SDS011;72655;47.596;7.658;2023-09-12T11:29:26;6.93;;;5.05;;
82876;SDS011;72655;47.596;7.658;2023-09-12T11:31:54;8.07;;;5.53;;
82876;SDS011;72655;47.596;7.658;2023-09-12T11:34:26;8.40;;;5.38;;
82876;SDS011;72655;47.596;7.658;2023-09-12T11:36:56;7.03;;;5.05;;
82876;SDS011;72655;47.596;7.658;2023-09-12T11:39:25;8.68;;;5.93;;
82876;SDS011;72655;47.596;7.658;2023-09-12T11:41:55;6.30;;;5.57;;
82876;SDS011;72655;47.596;7.658;2023-09-12T11:44:23;7.80;;;5.10;;
82876;SDS011;72655;47.596;7.658;2023-09-12T11:46:51;8.07;;;4.82;;
82876;SDS011;72655;47.596;7.658;2023-09-12T11:49:19;7.00;;;5.45;;
82876;SDS011;72655;47.596;7.658;2023-09-12T11:51:48;12.20;;;6.00;;
82876;SDS011;72655;47.596;7.658;2023-09-12T11:54:17;6.35;;;5.22;;
82876;SDS011;72655;47.596;7.658;2023-09-12T11:56:46;12.40;;;5.70;;
82876;SDS011;72655;47.596;7.658;2023-09-12T11:59:14;6.82;;;5.43;;
82876;SDS011;72655;47.596;7.658;2023-09-12T12:01:43;8.50;;;5.78;;
82876;SDS011;72655;47.596;7.658;2023-09-12T12:04:11;9.77;;;5.10;;
82876;SDS011;72655;47.596;7.658;2023-09-12T12:06:38;9.07;;;6.10;;
82876;SDS011;72655;47.596;7.658;2023-09-12T12:09:06;8.40;;;5.85;;
82876;SDS011;72655;47.596;7.658;2023-09-12T12:11:34;9.32;;;6.32;;
82876;SDS011;72655;47.596;7.658;2023-09-12T12:14:09;6.22;;;5.63;;
82876;SDS011;72655;47.596;7.658;2023-09-12T12:16:37;8.10;;;6.35;;
82876;SDS011;72655;47.596;7.658;2023-09-12T12:19:04;6.85;;;5.97;;
82876;SDS011;72655;47.596;7.658;2023-09-12T12:21:31;6.45;;;5.40;;
82876;SDS011;72655;47.596;7.658;2023-09-12T12:23:58;8.30;;;5.25;;
82876;SDS011;72655;47.596;7.658;2023-09-12T12:26:27;8.35;;;5.90;;
82876;SDS011;72655;47.596;7.658;2023-09-12T12:28:54;7.60;;;5.38;;
82876;SDS011;72655;47.596;7.658;2023-09-12T12:31:21;7.13;;;5.38;;
82876;SDS011;72655;47.596;7.658;2023-09-12T12:33:49;10.25;;;5.80;;
82876;SDS011;72655;47.596;7.658;2023-09-12T12:36:18;7.15;;;5.53;;
82876;SDS011;72655;47.596;7.658;2023-09-12T12:38:46;8.45;;;5.60;;
82876;SDS011;72655;47.596;7.658;2023-09-12T12:41:15;8.07;;;5.68;;
82876;SDS011;72655;47.596;7.658;2023-09-12T12:43:43;8.48;;;5.45;;
82876;SDS011;72655;47.596;7.658;2023-09-12T12:46:10;8.40;;;5.18;;
82876;SDS011;72655;47.596;7.658;2023-09-12T12:48:38;8.55;;;5.82;;
82876;SDS011;72655;47.596;7.658;2023-09-12T12:51:13;8.27;;;5.90;;
82876;SDS011;72655;47.596;7.658;2023-09-12T12:53:45;11.52;;;6.03;;
82876;SDS011;72655;47.596;7.658;2023-09-12T12:56:16;16.55;;;8.10;;
82876;SDS011;72655;47.596;7.658;2023-09-12T12:58:49;7.47;;;5.97;;
82876;SDS011;72655;47.596;7.658;2023-09-12T13:01:17;10.55;;;5.63;;
82876;SDS011;72655;47.596;7.658;2023-09-12T13:03:44;9.57;;;5.50;;
82876;SDS011;72655;47.596;7.658;2023-09-12T13:06:12;7.00;;;5.18;;
82876;SDS011;72655;47.596;7.658;2023-09-12T13:08:49;6.68;;;5.50;;
82876;SDS011;72655;47.596;7.658;2023-09-12T13:11:16;9.00;;;5.55;;
82876;SDS011;72655;47.596;7.658;2023-09-12T13:13:43;7.78;;;5.22;;
82876;SDS011;72655;47.596;7.658;2023-09-12T13:16:12;9.00;;;6.15;;
82876;SDS011;72655;47.596;7.658;2023-09-12T13:18:40;8.00;;;5.40;;
82876;SDS011;72655;47.596;7.658;2023-09-12T13:21:07;7.32;;;5.00;;
82876;SDS011;72655;47.596;7.658;2023-09-12T13:23:35;5.78;;;5.15;;
82876;SDS011;72655;47.596;7.658;2023-09-12T13:26:02;6.75;;;5.28;;
82876;SDS011;72655;47.596;7.658;2023-09-12T13:28:30;6.88;;;6.28;;
82876;SDS011;72655;47.596;7.658;2023-09-12T13:30:57;9.13;;;5.82;;
82876;SDS011;72655;47.596;7.658;2023-09-12T13:33:26;8.93;;;5.82;;
82876;SDS011;72655;47.596;7.658;2023-09-12T13:35:56;6.57;;;5.85;;
82876;SDS011;72655;47.596;7.658;2023-09-12T13:38:23;6.75;;;5.20;;
82876;SDS011;72655;47.596;7.658;2023-09-12T13:40:50;7.38;;;5.35;;
82876;SDS011;72655;47.596;7.658;2023-09-12T13:43:17;9.65;;;5.85;;
82876;SDS011;72655;47.596;7.658;2023-09-12T13:45:45;6.25;;;5.35;;
82876;SDS011;72655;47.596;7.658;2023-09-12T13:48:12;6.63;;;5.55;;
82876;SDS011;72655;47.596;7.658;2023-09-12T13:50:40;7.85;;;5.38;;
82876;SDS011;72655;47.596;7.658;2023-09-12T13:53:08;7.60;;;5.30;;
82876;SDS011;72655;47.596;7.658;2023-09-12T13:55:35;9.05;;;6.05;;
82876;SDS011;72655;47.596;7.658;2023-09-12T13:58:02;9.25;;;5.53;;
82876;SDS011;72655;47.596;7.658;2023-09-12T14:00:30;7.40;;;6.35;;
82876;SDS011;72655;47.596;7.658;2023-09-12T14:02:58;6.43;;;5.78;;
82876;SDS011;72655;47.596;7.658;2023-09-12T14:05:25;6.80;;;5.50;;
82876;SDS011;72655;47.596;7.658;2023-09-12T14:07:53;6.10;;;5.50;;
82876;SDS011;72655;47.596;7.658;2023-09-12T14:10:20;7.50;;;5.78;;
82876;SDS011;72655;47.596;7.658;2023-09-12T14:12:47;7.72;;;6.00;;
82876;SDS011;72655;47.596;7.658;2023-09-12T14:15:14;6.45;;;5.85;;
82876;SDS011;72655;47.596;7.658;2023-09-12T14:17:44;8.00;;;5.95;;
82876;SDS011;72655;47.596;7.658;2023-09-12T14:20:11;6.97;;;6.25;;
82876;SDS011;72655;47.596;7.658;2023-09-12T14:22:40;8.00;;;5.75;;
82876;SDS011;72655;47.596;7.658;2023-09-12T14:25:10;7.85;;;6.10;;
82876;SDS011;72655;47.596;7.658;2023-09-12T14:27:40;6.03;;;5.50;;
82876;SDS011;72655;47.596;7.658;2023-09-12T14:30:08;8.30;;;6.18;;
82876;SDS011;72655;47.596;7.658;2023-09-12T14:32:36;6.15;;;5.57;;
82876;SDS011;72655;47.596;7.658;2023-09-12T14:35:04;6.28;;;5.65;;
82876;SDS011;72655;47.596;7.658;2023-09-12T14:37:31;6.05;;;5.50;;
82876;SDS011;72655;47.596;7.658;2023-09-12T14:40:00;6.55;;;5.82;;
82876;SDS011;72655;47.596;7.658;2023-09-12T14:42:31;9.00;;;6.05;;
82876;SDS011;72655;47.596;7.658;2023-09-12T14:45:00;7.15;;;6.13;;
82876;SDS011;72655;47.596;7.658;2023-09-12T14:47:27;6.15;;;5.55;;
82876;SDS011;72655;47.596;7.658;2023-09-12T14:49:55;8.00;;;5.80;;
82876;SDS011;72655;47.596;7.658;2023-09-12T14:52:22;7.82;;;6.18;;
82876;SDS011;72655;47.596;7.658;2023-09-12T14:54:51;6.18;;;5.40;;
82876;SDS011;72655;47.596;7.658;2023-09-12T14:57:18;7.05;;;6.15;;
82876;SDS011;72655;47.596;7.658;2023-09-12T14:59:49;7.75;;;5.40;;
82876;SDS011;72655;47.596;7.658;2023-09-12T15:02:16;10.25;;;6.05;;
82876;SDS011;72655;47.596;7.658;2023-09-12T15:04:43;6.32;;;5.72;;
82876;SDS011;72655;47.596;7.658;2023-09-12T15:07:10;8.20;;;5.93;;
82876;SDS011;72655;47.596;7.658;2023-09-12T15:09:37;6.10;;;5.50;;
82876;SDS011;72655;47.596;7.658;2023-09-12T15:12:05;8.10;;;6.07;;
82876;SDS011;72655;47.596;7.658;2023-09-12T15:14:35;9.25;;;6.00;;
82876;SDS011;72655;47.596;7.658;2023-09-12T15:17:03;12.60;;;6.93;;
82876;SDS011;72655;47.596;7.658;2023-09-12T15:19:32;8.40;;;6.55;;
82876;SDS011;72655;47.596;7.658;2023-09-12T15:21:59;9.07;;;6.80;;
82876;SDS011;72655;47.596;7.658;2023-09-12T15:24:26;6.43;;;5.80;;
82876;SDS011;72655;47.596;7.658;2023-09-12T15:26:53;7.03;;;5.95;;
82876;SDS011;72655;47.596;7.658;2023-09-12T15:29:20;6.93;;;5.63;;
82876;SDS011;72655;47.596;7.658;2023-09-12T15:31:47;7.05;;;5.47;;
82876;SDS011;72655;47.596;7.658;2023-09-12T15:34:17;6.40;;;5.80;;
82876;SDS011;72655;47.596;7.658;2023-09-12T15:36:44;6.53;;;5.90;;
82876;SDS011;72655;47.596;7.658;2023-09-12T15:39:14;6.57;;;5.88;;
82876;SDS011;72655;47.596;7.658;2023-09-12T15:41:41;12.20;;;6.18;;
82876;SDS011;72655;47.596;7.658;2023-09-12T15:44:08;13.50;;;6.85;;
82876;SDS011;72655;47.596;7.658;2023-09-12T15:46:35;14.27;;;6.95;;
82876;SDS011;72655;47.596;7.658;2023-09-12T15:49:02;9.40;;;6.35;;
82876;SDS011;72655;47.596;7.658;2023-09-12T15:51:33;6.65;;;5.95;;
82876;SDS011;72655;47.596;7.658;2023-09-12T15:54:03;7.13;;;5.63;;
82876;SDS011;72655;47.596;7.658;2023-09-12T15:56:30;8.77;;;6.00;;
82876;SDS011;72655;47.596;7.658;2023-09-12T15:58:57;8.13;;;5.63;;
82876;SDS011;72655;47.596;7.658;2023-09-12T16:01:24;13.07;;;6.65;;
82876;SDS011;72655;47.596;7.658;2023-09-12T16:03:52;6.55;;;5.75;;
82876;SDS011;72655;47.596;7.658;2023-09-12T16:06:19;7.25;;;5.88;;
82876;SDS011;72655;47.596;7.658;2023-09-12T16:08:47;7.38;;;5.93;;
82876;SDS011;72655;47.596;7.658;2023-09-12T16:11:14;9.10;;;6.10;;
82876;SDS011;72655;47.596;7.658;2023-09-12T16:13:41;9.48;;;6.60;;
82876;SDS011;72655;47.596;7.658;2023-09-12T16:16:08;7.63;;;6.07;;
82876;SDS011;72655;47.596;7.658;2023-09-12T16:18:35;8.98;;;6.88;;
82876;SDS011;72655;47.596;7.658;2023-09-12T16:21:02;10.82;;;6.97;;
82876;SDS011;72655;47.596;7.658;2023-09-12T16:23:29;10.50;;;6.45;;
82876;SDS011;72655;47.596;7.658;2023-09-12T16:25:58;11.68;;;6.80;;
82876;SDS011;72655;47.596;7.658;2023-09-12T16:28:26;9.35;;;6.85;;
82876;SDS011;72655;47.596;7.658;2023-09-12T16:30:53;12.40;;;6.72;;
82876;SDS011;72655;47.596;7.658;2023-09-12T16:33:20;11.88;;;6.40;;
82876;SDS011;72655;47.596;7.658;2023-09-12T16:35:47;13.38;;;6.60;;
82876;SDS011;72655;47.596;7.658;2023-09-12T16:38:15;8.98;;;6.68;;
82876;SDS011;72655;47.596;7.658;2023-09-12T16:40:42;8.10;;;3.35;;
82876;SDS011;72655;47.596;7.658;2023-09-12T16:43:10;4.72;;;3.67;;
82876;SDS011;72655;47.596;7.658;2023-09-12T16:45:37;5.05;;;3.25;;
82876;SDS011;72655;47.596;7.658;2023-09-12T16:48:04;5.18;;;3.20;;
82876;SDS011;72655;47.596;7.658;2023-09-12T16:50:31;6.53;;;4.00;;
82876;SDS011;72655;47.596;7.658;2023-09-12T16:52:58;7.63;;;3.58;;
82876;SDS011;72655;47.596;7.658;2023-09-12T16:55:26;8.70;;;3.78;;
82876;SDS011;72655;47.596;7.658;2023-09-12T16:57:53;4.53;;;3.20;;
82876;SDS011;72655;47.596;7.658;2023-09-12T17:00:22;10.00;;;4.35;;
82876;SDS011;72655;47.596;7.658;2023-09-12T17:02:52;5.55;;;3.50;;
82876;SDS011;72655;47.596;7.658;2023-09-12T17:05:19;8.23;;;3.70;;
82876;SDS011;72655;47.596;7.658;2023-09-12T17:07:48;10.95;;;4.00;;
82876;SDS011;72655;47.596;7.658;2023-09-12T17:10:15;6.45;;;4.88;;
82876;SDS011;72655;47.596;7.658;2023-09-12T17:12:42;7.00;;;3.97;;
82876;SDS011;72655;47.596;7.658;2023-09-12T17:15:09;6.85;;;4.10;;
82876;SDS011;72655;47.596;7.658;2023-09-12T17:17:38;7.05;;;4.00;;
82876;SDS011;72655;47.596;7.658;2023-09-12T17:20:05;7.97;;;4.07;;
82876;SDS011;72655;47.596;7.658;2023-09-12T17:22:32;9.38;;;3.90;;
82876;SDS011;72655;47.596;7.658;2023-09-12T17:24:59;7.72;;;4.60;;
82876;SDS011;72655;47.596;7.658;2023-09-12T17:27:26;10.07;;;4.85;;
82876;SDS011;72655;47.596;7.658;2023-09-12T17:29:54;5.40;;;4.25;;
82876;SDS011;72655;47.596;7.658;2023-09-12T17:32:21;7.68;;;4.35;;
82876;SDS011;72655;47.596;7.658;2023-09-12T17:34:50;5.82;;;4.32;;
82876;SDS011;72655;47.596;7.658;2023-09-12T17:37:19;17.42;;;4.95;;
82876;SDS011;72655;47.596;7.658;2023-09-12T17:39:47;8.52;;;4.25;;
82876;SDS011;72655;47.596;7.658;2023-09-12T17:42:16;7.78;;;4.63;;
82876;SDS011;72655;47.596;7.658;2023-09-12T17:44:43;8.75;;;4.38;;
82876;SDS011;72655;47.596;7.658;2023-09-12T17:47:10;6.97;;;4.50;;
82876;SDS011;72655;47.596;7.658;2023-09-12T17:49:39;8.70;;;4.80;;
82876;SDS011;72655;47.596;7.658;2023-09-12T17:52:08;8.82;;;4.50;;
82876;SDS011;72655;47.596;7.658;2023-09-12T17:54:37;10.00;;;5.00;;
82876;SDS011;72655;47.596;7.658;2023-09-12T17:57:04;7.50;;;4.57;;
82876;SDS011;72655;47.596;7.658;2023-09-12T17:59:31;21.70;;;5.95;;
82876;SDS011;72655;47.596;7.658;2023-09-12T18:01:59;6.50;;;5.00;;
82876;SDS011;72655;47.596;7.658;2023-09-12T18:04:26;7.63;;;4.90;;
82876;SDS011;72655;47.596;7.658;2023-09-12T18:06:53;6.65;;;4.53;;
82876;SDS011;72655;47.596;7.658;2023-09-12T18:09:22;9.18;;;4.65;;
82876;SDS011;72655;47.596;7.658;2023-09-12T18:11:49;5.05;;;4.22;;
82876;SDS011;72655;47.596;7.658;2023-09-12T18:14:17;7.15;;;4.35;;
82876;SDS011;72655;47.596;7.658;2023-09-12T18:16:44;8.07;;;4.85;;
82876;SDS011;72655;47.596;7.658;2023-09-12T18:19:11;6.78;;;4.30;;
82876;SDS011;72655;47.596;7.658;2023-09-12T18:21:38;6.85;;;4.85;;
82876;SDS011;72655;47.596;7.658;2023-09-12T18:24:05;7.60;;;5.32;;
82876;SDS011;72655;47.596;7.658;2023-09-12T18:26:33;7.18;;;4.65;;
82876;SDS011;72655;47.596;7.658;2023-09-12T18:29:01;6.10;;;4.47;;
82876;SDS011;72655;47.596;7.658;2023-09-12T18:31:28;8.35;;;4.80;;
82876;SDS011;72655;47.596;7.658;2023-09-12T18:33:55;6.75;;;4.50;;
82876;SDS011;72655;47.596;7.658;2023-09-12T18:36:22;6.55;;;4.97;;
82876;SDS011;72655;47.596;7.658;2023-09-12T18:38:51;6.20;;;5.15;;
82876;SDS011;72655;47.596;7.658;2023-09-12T18:41:20;8.50;;;4.95;;
82876;SDS011;72655;47.596;7.658;2023-09-12T18:43:48;6.15;;;4.97;;
82876;SDS011;72655;47.596;7.658;2023-09-12T18:46:18;9.98;;;5.40;;
82876;SDS011;72655;47.596;7.658;2023-09-12T18:48:45;9.68;;;5.15;;
82876;SDS011;72655;47.596;7.658;2023-09-12T18:51:12;6.93;;;4.63;;
82876;SDS011;72655;47.596;7.658;2023-09-12T18:53:40;8.32;;;4.82;;
82876;SDS011;72655;47.596;7.658;2023-09-12T18:56:07;8.05;;;4.50;;
82876;SDS011;72655;47.596;7.658;2023-09-12T18:58:34;7.53;;;6.18;;
82876;SDS011;72655;47.596;7.658;2023-09-12T19:01:03;5.70;;;4.60;;
82876;SDS011;72655;47.596;7.658;2023-09-12T19:03:30;8.80;;;5.10;;
82876;SDS011;72655;47.596;7.658;2023-09-12T19:05:59;10.18;;;6.22;;
82876;SDS011;72655;47.596;7.658;2023-09-12T19:08:28;9.48;;;4.97;;
82876;SDS011;72655;47.596;7.658;2023-09-12T19:10:55;11.50;;;6.85;;
82876;SDS011;72655;47.596;7.658;2023-09-12T19:13:22;8.82;;;5.65;;
82876;SDS011;72655;47.596;7.658;2023-09-12T19:15:50;8.40;;;5.43;;
82876;SDS011;72655;47.596;7.658;2023-09-12T19:18:18;9.15;;;6.07;;
82876;SDS011;72655;47.596;7.658;2023-09-12T19:20:45;10.30;;;5.97;;
